sensor_id;sensor_type;location;lat;lon;timestamp;P1;durP1;ratioP1;P2;durP2;ratioP2
38162;SDS011;23977;53.078;18.248;2023-07-30T00:02:17;9.45;;;8.07;;
38162;SDS011;23977;53.078;18.248;2023-07-30T00:04:43;10.48;;;9.00;;
38162;SDS011;23977;53.078;18.248;2023-07-30T00:07:10;8.50;;;7.18;;
38162;SDS011;23977;53.078;18.248;2023-07-30T00:09:36;7.38;;;5.28;;
38162;SDS011;23977;53.078;18.248;2023-07-30T00:12:02;6.55;;;5.40;;
38162;SDS011;23977;53.078;18.248;2023-07-30T00:14:29;8.07;;;5.30;;
38162;SDS011;23977;53.078;18.248;2023-07-30T00:16:55;7.45;;;5.03;;
38162;SDS011;23977;53.078;18.248;2023-07-30T00:19:20;7.82;;;5.03;;
38162;SDS011;23977;53.078;18.248;2023-07-30T00:21:46;6.47;;;5.07;;
38162;SDS011;23977;53.078;18.248;2023-07-30T00:24:14;6.82;;;5.50;;
38162;SDS011;23977;53.078;18.248;2023-07-30T00:26:40;9.43;;;6.00;;
38162;SDS011;23977;53.078;18.248;2023-07-30T00:29:06;8.50;;;5.65;;
38162;SDS011;23977;53.078;18.248;2023-07-30T00:31:32;8.85;;;5.80;;
38162;SDS011;23977;53.078;18.248;2023-07-30T00:33:57;6.20;;;5.57;;
38162;SDS011;23977;53.078;18.248;2023-07-30T00:36:23;8.13;;;6.18;;
38162;SDS011;23977;53.078;18.248;2023-07-30T00:38:48;8.32;;;5.95;;
38162;SDS011;23977;53.078;18.248;2023-07-30T00:41:14;7.18;;;5.80;;
38162;SDS011;23977;53.078;18.248;2023-07-30T00:43:39;7.60;;;6.32;;
38162;SDS011;23977;53.078;18.248;2023-07-30T00:46:05;10.00;;;6.43;;
38162;SDS011;23977;53.078;18.248;2023-07-30T00:48:31;8.98;;;6.80;;
38162;SDS011;23977;53.078;18.248;2023-07-30T00:50:57;7.60;;;6.05;;
38162;SDS011;23977;53.078;18.248;2023-07-30T00:53:24;8.20;;;6.50;;
38162;SDS011;23977;53.078;18.248;2023-07-30T00:55:52;8.80;;;6.63;;
38162;SDS011;23977;53.078;18.248;2023-07-30T00:58:18;9.05;;;6.55;;
38162;SDS011;23977;53.078;18.248;2023-07-30T01:00:46;8.15;;;6.57;;
38162;SDS011;23977;53.078;18.248;2023-07-30T01:03:12;8.68;;;6.20;;
38162;SDS011;23977;53.078;18.248;2023-07-30T01:05:38;10.75;;;7.03;;
38162;SDS011;23977;53.078;18.248;2023-07-30T01:08:04;8.18;;;6.82;;
38162;SDS011;23977;53.078;18.248;2023-07-30T01:10:30;7.60;;;6.63;;
38162;SDS011;23977;53.078;18.248;2023-07-30T01:12:57;9.68;;;6.88;;
38162;SDS011;23977;53.078;18.248;2023-07-30T01:15:25;9.52;;;6.93;;
38162;SDS011;23977;53.078;18.248;2023-07-30T01:17:51;7.35;;;6.50;;
38162;SDS011;23977;53.078;18.248;2023-07-30T01:20:17;11.02;;;8.10;;
38162;SDS011;23977;53.078;18.248;2023-07-30T01:22:42;10.88;;;8.27;;
38162;SDS011;23977;53.078;18.248;2023-07-30T01:25:08;9.18;;;7.88;;
38162;SDS011;23977;53.078;18.248;2023-07-30T01:27:36;10.13;;;7.93;;
38162;SDS011;23977;53.078;18.248;2023-07-30T01:30:17;10.25;;;7.40;;
38162;SDS011;23977;53.078;18.248;2023-07-30T01:32:46;10.63;;;8.32;;
38162;SDS011;23977;53.078;18.248;2023-07-30T01:35:15;11.65;;;8.50;;
38162;SDS011;23977;53.078;18.248;2023-07-30T01:37:41;12.30;;;9.10;;
38162;SDS011;23977;53.078;18.248;2023-07-30T01:40:09;11.65;;;9.15;;
38162;SDS011;23977;53.078;18.248;2023-07-30T01:42:35;12.15;;;9.73;;
38162;SDS011;23977;53.078;18.248;2023-07-30T01:45:02;12.07;;;9.13;;
38162;SDS011;23977;53.078;18.248;2023-07-30T01:47:28;10.27;;;9.05;;
38162;SDS011;23977;53.078;18.248;2023-07-30T01:49:53;10.98;;;8.85;;
38162;SDS011;23977;53.078;18.248;2023-07-30T01:52:19;11.98;;;9.80;;
38162;SDS011;23977;53.078;18.248;2023-07-30T01:54:45;11.23;;;9.80;;
38162;SDS011;23977;53.078;18.248;2023-07-30T01:57:11;11.85;;;10.32;;
38162;SDS011;23977;53.078;18.248;2023-07-30T01:59:38;12.25;;;9.93;;
38162;SDS011;23977;53.078;18.248;2023-07-30T02:02:04;14.30;;;9.60;;
38162;SDS011;23977;53.078;18.248;2023-07-30T02:04:30;12.60;;;9.80;;
38162;SDS011;23977;53.078;18.248;2023-07-30T02:06:55;12.32;;;9.82;;
38162;SDS011;23977;53.078;18.248;2023-07-30T02:09:21;11.93;;;10.20;;
38162;SDS011;23977;53.078;18.248;2023-07-30T02:11:46;14.93;;;11.93;;
38162;SDS011;23977;53.078;18.248;2023-07-30T02:14:12;12.48;;;10.80;;
38162;SDS011;23977;53.078;18.248;2023-07-30T02:16:38;12.07;;;10.13;;
38162;SDS011;23977;53.078;18.248;2023-07-30T02:19:03;11.20;;;10.00;;
38162;SDS011;23977;53.078;18.248;2023-07-30T02:21:29;12.57;;;10.15;;
38162;SDS011;23977;53.078;18.248;2023-07-30T02:23:58;13.43;;;10.70;;
38162;SDS011;23977;53.078;18.248;2023-07-30T02:26:25;13.93;;;12.32;;
38162;SDS011;23977;53.078;18.248;2023-07-30T02:28:50;12.90;;;11.18;;
38162;SDS011;23977;53.078;18.248;2023-07-30T02:31:16;13.05;;;10.10;;
38162;SDS011;23977;53.078;18.248;2023-07-30T02:33:41;11.30;;;10.10;;
38162;SDS011;23977;53.078;18.248;2023-07-30T02:36:07;13.73;;;10.30;;
38162;SDS011;23977;53.078;18.248;2023-07-30T02:38:33;10.68;;;9.55;;
38162;SDS011;23977;53.078;18.248;2023-07-30T02:40:58;12.52;;;10.13;;
38162;SDS011;23977;53.078;18.248;2023-07-30T02:43:24;13.25;;;10.13;;
38162;SDS011;23977;53.078;18.248;2023-07-30T02:45:49;12.02;;;9.68;;
38162;SDS011;23977;53.078;18.248;2023-07-30T02:48:15;10.90;;;9.77;;
38162;SDS011;23977;53.078;18.248;2023-07-30T02:50:40;12.45;;;10.20;;
38162;SDS011;23977;53.078;18.248;2023-07-30T02:53:06;12.07;;;10.43;;
38162;SDS011;23977;53.078;18.248;2023-07-30T02:55:32;12.75;;;10.52;;
38162;SDS011;23977;53.078;18.248;2023-07-30T02:57:57;13.90;;;10.68;;
38162;SDS011;23977;53.078;18.248;2023-07-30T03:00:23;12.35;;;10.07;;
38162;SDS011;23977;53.078;18.248;2023-07-30T03:02:49;13.38;;;10.25;;
38162;SDS011;23977;53.078;18.248;2023-07-30T03:05:14;11.85;;;9.73;;
38162;SDS011;23977;53.078;18.248;2023-07-30T03:07:40;11.05;;;9.27;;
38162;SDS011;23977;53.078;18.248;2023-07-30T03:10:06;10.43;;;8.00;;
38162;SDS011;23977;53.078;18.248;2023-07-30T03:12:32;12.77;;;9.57;;
38162;SDS011;23977;53.078;18.248;2023-07-30T03:14:57;10.10;;;8.52;;
38162;SDS011;23977;53.078;18.248;2023-07-30T03:17:23;10.60;;;8.82;;
38162;SDS011;23977;53.078;18.248;2023-07-30T03:19:48;10.48;;;8.50;;
38162;SDS011;23977;53.078;18.248;2023-07-30T03:22:14;13.10;;;9.48;;
38162;SDS011;23977;53.078;18.248;2023-07-30T03:24:39;11.98;;;9.93;;
38162;SDS011;23977;53.078;18.248;2023-07-30T03:27:05;12.10;;;9.93;;
38162;SDS011;23977;53.078;18.248;2023-07-30T03:29:31;13.95;;;10.13;;
38162;SDS011;23977;53.078;18.248;2023-07-30T03:31:57;12.60;;;10.02;;
38162;SDS011;23977;53.078;18.248;2023-07-30T03:34:22;12.45;;;9.85;;
38162;SDS011;23977;53.078;18.248;2023-07-30T03:36:48;12.63;;;11.25;;
38162;SDS011;23977;53.078;18.248;2023-07-30T03:39:13;12.40;;;10.45;;
38162;SDS011;23977;53.078;18.248;2023-07-30T03:41:39;13.38;;;10.82;;
38162;SDS011;23977;53.078;18.248;2023-07-30T03:44:04;13.93;;;10.88;;
38162;SDS011;23977;53.078;18.248;2023-07-30T03:46:30;12.88;;;11.18;;
38162;SDS011;23977;53.078;18.248;2023-07-30T03:48:55;14.38;;;10.88;;
38162;SDS011;23977;53.078;18.248;2023-07-30T03:51:21;15.35;;;11.70;;
38162;SDS011;23977;53.078;18.248;2023-07-30T03:53:47;14.73;;;12.05;;
38162;SDS011;23977;53.078;18.248;2023-07-30T03:56:13;12.77;;;10.75;;
38162;SDS011;23977;53.078;18.248;2023-07-30T03:58:38;11.88;;;10.35;;
38162;SDS011;23977;53.078;18.248;2023-07-30T04:01:04;13.43;;;11.27;;
38162;SDS011;23977;53.078;18.248;2023-07-30T04:03:29;14.40;;;11.50;;
38162;SDS011;23977;53.078;18.248;2023-07-30T04:05:55;12.73;;;10.70;;
38162;SDS011;23977;53.078;18.248;2023-07-30T04:08:20;12.77;;;10.48;;
38162;SDS011;23977;53.078;18.248;2023-07-30T04:10:46;14.48;;;10.10;;
38162;SDS011;23977;53.078;18.248;2023-07-30T04:13:12;10.60;;;8.80;;
38162;SDS011;23977;53.078;18.248;2023-07-30T04:15:37;14.63;;;10.52;;
38162;SDS011;23977;53.078;18.248;2023-07-30T04:18:03;13.18;;;10.13;;
38162;SDS011;23977;53.078;18.248;2023-07-30T04:20:29;15.27;;;11.40;;
38162;SDS011;23977;53.078;18.248;2023-07-30T04:22:54;13.18;;;10.60;;
38162;SDS011;23977;53.078;18.248;2023-07-30T04:25:20;13.43;;;10.75;;
38162;SDS011;23977;53.078;18.248;2023-07-30T04:27:45;13.07;;;10.27;;
38162;SDS011;23977;53.078;18.248;2023-07-30T04:30:11;10.82;;;9.20;;
38162;SDS011;23977;53.078;18.248;2023-07-30T04:32:37;12.00;;;10.38;;
38162;SDS011;23977;53.078;18.248;2023-07-30T04:35:03;14.95;;;11.05;;
38162;SDS011;23977;53.078;18.248;2023-07-30T04:37:29;13.30;;;10.73;;
38162;SDS011;23977;53.078;18.248;2023-07-30T04:39:54;12.75;;;10.05;;
38162;SDS011;23977;53.078;18.248;2023-07-30T04:42:20;15.25;;;11.18;;
38162;SDS011;23977;53.078;18.248;2023-07-30T04:44:46;13.90;;;11.30;;
38162;SDS011;23977;53.078;18.248;2023-07-30T04:47:11;14.38;;;10.85;;
38162;SDS011;23977;53.078;18.248;2023-07-30T04:49:37;13.20;;;11.10;;
38162;SDS011;23977;53.078;18.248;2023-07-30T04:52:06;12.90;;;10.57;;
38162;SDS011;23977;53.078;18.248;2023-07-30T04:54:32;14.82;;;11.07;;
38162;SDS011;23977;53.078;18.248;2023-07-30T04:56:58;14.13;;;10.77;;
38162;SDS011;23977;53.078;18.248;2023-07-30T04:59:23;12.27;;;10.55;;
38162;SDS011;23977;53.078;18.248;2023-07-30T05:01:49;12.55;;;10.52;;
38162;SDS011;23977;53.078;18.248;2023-07-30T05:04:15;17.08;;;12.00;;
38162;SDS011;23977;53.078;18.248;2023-07-30T05:06:40;12.55;;;9.90;;
38162;SDS011;23977;53.078;18.248;2023-07-30T05:09:06;13.27;;;10.38;;
38162;SDS011;23977;53.078;18.248;2023-07-30T05:11:31;13.43;;;11.18;;
38162;SDS011;23977;53.078;18.248;2023-07-30T05:13:57;13.50;;;10.57;;
38162;SDS011;23977;53.078;18.248;2023-07-30T05:16:22;14.15;;;10.98;;
38162;SDS011;23977;53.078;18.248;2023-07-30T05:18:48;15.38;;;12.25;;
38162;SDS011;23977;53.078;18.248;2023-07-30T05:21:13;17.38;;;11.77;;
38162;SDS011;23977;53.078;18.248;2023-07-30T05:23:39;15.80;;;11.90;;
38162;SDS011;23977;53.078;18.248;2023-07-30T05:26:05;17.35;;;12.95;;
38162;SDS011;23977;53.078;18.248;2023-07-30T05:28:30;14.25;;;11.00;;
38162;SDS011;23977;53.078;18.248;2023-07-30T05:30:56;15.32;;;12.13;;
38162;SDS011;23977;53.078;18.248;2023-07-30T05:33:22;15.85;;;12.00;;
38162;SDS011;23977;53.078;18.248;2023-07-30T05:35:47;12.85;;;10.77;;
38162;SDS011;23977;53.078;18.248;2023-07-30T05:38:13;16.10;;;11.98;;
38162;SDS011;23977;53.078;18.248;2023-07-30T05:40:38;16.13;;;12.80;;
38162;SDS011;23977;53.078;18.248;2023-07-30T05:43:04;17.17;;;12.20;;
38162;SDS011;23977;53.078;18.248;2023-07-30T05:45:30;13.18;;;11.25;;
38162;SDS011;23977;53.078;18.248;2023-07-30T05:47:55;14.85;;;12.15;;
38162;SDS011;23977;53.078;18.248;2023-07-30T05:50:21;15.60;;;12.32;;
38162;SDS011;23977;53.078;18.248;2023-07-30T05:52:47;15.23;;;12.10;;
38162;SDS011;23977;53.078;18.248;2023-07-30T05:55:12;14.65;;;11.65;;
38162;SDS011;23977;53.078;18.248;2023-07-30T05:57:38;15.38;;;11.32;;
38162;SDS011;23977;53.078;18.248;2023-07-30T06:00:03;15.80;;;12.15;;
38162;SDS011;23977;53.078;18.248;2023-07-30T06:02:30;15.18;;;11.45;;
38162;SDS011;23977;53.078;18.248;2023-07-30T06:04:57;14.88;;;12.32;;
38162;SDS011;23977;53.078;18.248;2023-07-30T06:07:22;13.05;;;10.80;;
38162;SDS011;23977;53.078;18.248;2023-07-30T06:09:48;12.85;;;11.25;;
38162;SDS011;23977;53.078;18.248;2023-07-30T06:12:14;11.73;;;9.85;;
38162;SDS011;23977;53.078;18.248;2023-07-30T06:14:39;13.02;;;11.02;;
38162;SDS011;23977;53.078;18.248;2023-07-30T06:17:05;14.75;;;11.60;;
38162;SDS011;23977;53.078;18.248;2023-07-30T06:19:31;12.20;;;10.85;;
38162;SDS011;23977;53.078;18.248;2023-07-30T06:21:56;12.10;;;9.68;;
38162;SDS011;23977;53.078;18.248;2023-07-30T06:24:22;13.70;;;9.98;;
38162;SDS011;23977;53.078;18.248;2023-07-30T06:26:48;12.55;;;9.77;;
38162;SDS011;23977;53.078;18.248;2023-07-30T06:29:13;11.20;;;10.07;;
38162;SDS011;23977;53.078;18.248;2023-07-30T06:31:39;12.07;;;9.63;;
38162;SDS011;23977;53.078;18.248;2023-07-30T06:34:04;10.82;;;9.32;;
38162;SDS011;23977;53.078;18.248;2023-07-30T06:36:30;10.77;;;8.90;;
38162;SDS011;23977;53.078;18.248;2023-07-30T06:38:56;12.20;;;10.10;;
38162;SDS011;23977;53.078;18.248;2023-07-30T06:41:21;10.82;;;9.18;;
38162;SDS011;23977;53.078;18.248;2023-07-30T06:43:47;10.18;;;9.13;;
38162;SDS011;23977;53.078;18.248;2023-07-30T06:46:12;11.45;;;9.38;;
38162;SDS011;23977;53.078;18.248;2023-07-30T06:48:39;9.45;;;8.30;;
38162;SDS011;23977;53.078;18.248;2023-07-30T06:51:05;10.90;;;8.85;;
38162;SDS011;23977;53.078;18.248;2023-07-30T06:53:31;11.48;;;8.90;;
38162;SDS011;23977;53.078;18.248;2023-07-30T06:55:57;8.90;;;8.00;;
38162;SDS011;23977;53.078;18.248;2023-07-30T06:58:22;9.90;;;7.18;;
38162;SDS011;23977;53.078;18.248;2023-07-30T07:00:48;10.13;;;7.30;;
38162;SDS011;23977;53.078;18.248;2023-07-30T07:03:13;10.73;;;7.65;;
38162;SDS011;23977;53.078;18.248;2023-07-30T07:05:39;10.43;;;8.52;;
38162;SDS011;23977;53.078;18.248;2023-07-30T07:08:05;7.57;;;6.68;;
38162;SDS011;23977;53.078;18.248;2023-07-30T07:10:31;7.72;;;6.38;;
38162;SDS011;23977;53.078;18.248;2023-07-30T07:12:56;10.02;;;8.32;;
38162;SDS011;23977;53.078;18.248;2023-07-30T07:15:22;10.88;;;7.35;;
38162;SDS011;23977;53.078;18.248;2023-07-30T07:17:47;8.63;;;7.70;;
38162;SDS011;23977;53.078;18.248;2023-07-30T07:20:13;8.50;;;7.10;;
38162;SDS011;23977;53.078;18.248;2023-07-30T07:22:38;9.43;;;7.68;;
38162;SDS011;23977;53.078;18.248;2023-07-30T07:25:04;9.48;;;7.32;;
38162;SDS011;23977;53.078;18.248;2023-07-30T07:27:30;8.55;;;6.43;;
38162;SDS011;23977;53.078;18.248;2023-07-30T07:29:56;7.95;;;6.55;;
38162;SDS011;23977;53.078;18.248;2023-07-30T07:32:21;7.07;;;6.30;;
38162;SDS011;23977;53.078;18.248;2023-07-30T07:34:47;7.93;;;6.43;;
38162;SDS011;23977;53.078;18.248;2023-07-30T07:37:14;8.15;;;6.65;;
38162;SDS011;23977;53.078;18.248;2023-07-30T07:39:41;8.88;;;5.75;;
38162;SDS011;23977;53.078;18.248;2023-07-30T07:42:07;6.88;;;5.15;;
38162;SDS011;23977;53.078;18.248;2023-07-30T07:44:32;5.78;;;4.85;;
38162;SDS011;23977;53.078;18.248;2023-07-30T07:46:58;5.88;;;4.78;;
38162;SDS011;23977;53.078;18.248;2023-07-30T07:49:23;6.63;;;5.35;;
38162;SDS011;23977;53.078;18.248;2023-07-30T07:51:49;6.15;;;5.00;;
38162;SDS011;23977;53.078;18.248;2023-07-30T07:54:15;8.55;;;5.63;;
38162;SDS011;23977;53.078;18.248;2023-07-30T07:56:40;7.53;;;6.03;;
38162;SDS011;23977;53.078;18.248;2023-07-30T07:59:06;6.35;;;5.57;;
38162;SDS011;23977;53.078;18.248;2023-07-30T08:01:31;7.05;;;6.30;;
38162;SDS011;23977;53.078;18.248;2023-07-30T08:03:57;7.78;;;5.93;;
38162;SDS011;23977;53.078;18.248;2023-07-30T08:06:23;8.82;;;6.00;;
38162;SDS011;23977;53.078;18.248;2023-07-30T08:08:49;6.38;;;5.78;;
38162;SDS011;23977;53.078;18.248;2023-07-30T08:11:14;7.53;;;6.18;;
38162;SDS011;23977;53.078;18.248;2023-07-30T08:13:40;9.85;;;6.53;;
38162;SDS011;23977;53.078;18.248;2023-07-30T08:16:06;7.22;;;6.32;;
38162;SDS011;23977;53.078;18.248;2023-07-30T08:18:32;7.70;;;6.13;;
38162;SDS011;23977;53.078;18.248;2023-07-30T08:20:57;7.72;;;5.95;;
38162;SDS011;23977;53.078;18.248;2023-07-30T08:23:23;6.78;;;5.38;;
38162;SDS011;23977;53.078;18.248;2023-07-30T08:25:49;6.38;;;5.55;;
38162;SDS011;23977;53.078;18.248;2023-07-30T08:28:15;6.25;;;5.65;;
38162;SDS011;23977;53.078;18.248;2023-07-30T08:30:40;6.95;;;4.80;;
38162;SDS011;23977;53.078;18.248;2023-07-30T08:33:06;7.53;;;5.07;;
38162;SDS011;23977;53.078;18.248;2023-07-30T08:35:32;8.32;;;6.28;;
38162;SDS011;23977;53.078;18.248;2023-07-30T08:37:57;6.88;;;6.15;;
38162;SDS011;23977;53.078;18.248;2023-07-30T08:40:23;6.15;;;5.47;;
38162;SDS011;23977;53.078;18.248;2023-07-30T08:42:50;7.60;;;5.03;;
38162;SDS011;23977;53.078;18.248;2023-07-30T08:45:17;5.75;;;4.57;;
38162;SDS011;23977;53.078;18.248;2023-07-30T08:47:43;6.72;;;3.92;;
38162;SDS011;23977;53.078;18.248;2023-07-30T08:50:09;4.10;;;3.30;;
38162;SDS011;23977;53.078;18.248;2023-07-30T08:52:36;4.80;;;3.30;;
38162;SDS011;23977;53.078;18.248;2023-07-30T08:55:02;5.68;;;4.05;;
38162;SDS011;23977;53.078;18.248;2023-07-30T08:57:29;5.05;;;4.40;;
38162;SDS011;23977;53.078;18.248;2023-07-30T09:00:05;5.90;;;4.32;;
38162;SDS011;23977;53.078;18.248;2023-07-30T09:02:41;6.18;;;4.20;;
38162;SDS011;23977;53.078;18.248;2023-07-30T09:05:10;5.25;;;4.18;;
38162;SDS011;23977;53.078;18.248;2023-07-30T09:07:36;5.28;;;3.60;;
38162;SDS011;23977;53.078;18.248;2023-07-30T09:10:01;6.43;;;3.33;;
38162;SDS011;23977;53.078;18.248;2023-07-30T09:12:28;4.80;;;3.00;;
38162;SDS011;23977;53.078;18.248;2023-07-30T09:14:55;3.85;;;2.63;;
38162;SDS011;23977;53.078;18.248;2023-07-30T09:17:21;5.32;;;3.05;;
38162;SDS011;23977;53.078;18.248;2023-07-30T09:19:46;3.40;;;3.08;;
38162;SDS011;23977;53.078;18.248;2023-07-30T09:22:13;3.35;;;2.60;;
38162;SDS011;23977;53.078;18.248;2023-07-30T09:24:43;4.80;;;2.60;;
38162;SDS011;23977;53.078;18.248;2023-07-30T09:27:09;5.38;;;2.47;;
38162;SDS011;23977;53.078;18.248;2023-07-30T09:29:34;3.35;;;2.70;;
38162;SDS011;23977;53.078;18.248;2023-07-30T09:32:00;4.35;;;2.67;;
38162;SDS011;23977;53.078;18.248;2023-07-30T09:34:26;3.55;;;2.63;;
38162;SDS011;23977;53.078;18.248;2023-07-30T09:36:52;5.47;;;3.03;;
38162;SDS011;23977;53.078;18.248;2023-07-30T09:39:22;4.18;;;3.03;;
38162;SDS011;23977;53.078;18.248;2023-07-30T09:41:58;4.45;;;3.03;;
38162;SDS011;23977;53.078;18.248;2023-07-30T09:44:25;4.97;;;2.80;;
38162;SDS011;23977;53.078;18.248;2023-07-30T09:46:51;4.80;;;3.10;;
38162;SDS011;23977;53.078;18.248;2023-07-30T09:49:17;4.10;;;2.88;;
38162;SDS011;23977;53.078;18.248;2023-07-30T09:51:43;3.78;;;2.65;;
38162;SDS011;23977;53.078;18.248;2023-07-30T09:54:11;4.60;;;2.90;;
38162;SDS011;23977;53.078;18.248;2023-07-30T09:56:38;3.83;;;2.90;;
38162;SDS011;23977;53.078;18.248;2023-07-30T09:59:06;4.88;;;3.50;;
38162;SDS011;23977;53.078;18.248;2023-07-30T10:01:33;4.07;;;3.28;;
38162;SDS011;23977;53.078;18.248;2023-07-30T10:04:05;5.43;;;3.08;;
38162;SDS011;23977;53.078;18.248;2023-07-30T10:06:35;5.25;;;3.20;;
38162;SDS011;23977;53.078;18.248;2023-07-30T10:09:06;5.78;;;3.30;;
38162;SDS011;23977;53.078;18.248;2023-07-30T10:11:34;6.30;;;3.10;;
38162;SDS011;23977;53.078;18.248;2023-07-30T10:14:01;5.97;;;3.50;;
38162;SDS011;23977;53.078;18.248;2023-07-30T10:16:30;6.00;;;2.78;;
38162;SDS011;23977;53.078;18.248;2023-07-30T10:18:57;5.20;;;2.80;;
38162;SDS011;23977;53.078;18.248;2023-07-30T10:21:25;4.65;;;2.80;;
38162;SDS011;23977;53.078;18.248;2023-07-30T10:24:01;5.22;;;3.30;;
38162;SDS011;23977;53.078;18.248;2023-07-30T10:26:29;5.00;;;3.03;;
38162;SDS011;23977;53.078;18.248;2023-07-30T10:29:18;4.95;;;3.17;;
38162;SDS011;23977;53.078;18.248;2023-07-30T10:31:55;6.28;;;2.88;;
38162;SDS011;23977;53.078;18.248;2023-07-30T10:34:25;3.88;;;2.90;;
38162;SDS011;23977;53.078;18.248;2023-07-30T10:36:54;4.35;;;2.88;;
38162;SDS011;23977;53.078;18.248;2023-07-30T10:39:22;4.55;;;2.80;;
38162;SDS011;23977;53.078;18.248;2023-07-30T10:41:55;4.50;;;2.90;;
38162;SDS011;23977;53.078;18.248;2023-07-30T10:44:26;4.28;;;2.60;;
38162;SDS011;23977;53.078;18.248;2023-07-30T10:46:53;5.47;;;2.90;;
38162;SDS011;23977;53.078;18.248;2023-07-30T10:49:20;3.60;;;2.50;;
38162;SDS011;23977;53.078;18.248;2023-07-30T10:51:46;4.32;;;2.80;;
38162;SDS011;23977;53.078;18.248;2023-07-30T10:54:11;5.88;;;2.97;;
38162;SDS011;23977;53.078;18.248;2023-07-30T10:56:38;4.22;;;2.83;;
38162;SDS011;23977;53.078;18.248;2023-07-30T10:59:05;4.25;;;2.55;;
38162;SDS011;23977;53.078;18.248;2023-07-30T11:01:42;3.60;;;2.60;;
38162;SDS011;23977;53.078;18.248;2023-07-30T11:04:09;4.75;;;2.53;;
38162;SDS011;23977;53.078;18.248;2023-07-30T11:06:45;4.35;;;2.70;;
38162;SDS011;23977;53.078;18.248;2023-07-30T11:11:46;3.60;;;2.63;;
38162;SDS011;23977;53.078;18.248;2023-07-30T11:14:19;3.70;;;2.70;;
38162;SDS011;23977;53.078;18.248;2023-07-30T11:16:50;4.22;;;2.90;;
38162;SDS011;23977;53.078;18.248;2023-07-30T11:19:17;4.70;;;2.97;;
38162;SDS011;23977;53.078;18.248;2023-07-30T11:21:47;5.32;;;2.88;;
38162;SDS011;23977;53.078;18.248;2023-07-30T11:24:14;3.80;;;2.67;;
38162;SDS011;23977;53.078;18.248;2023-07-30T11:26:40;4.05;;;2.50;;
38162;SDS011;23977;53.078;18.248;2023-07-30T11:29:15;3.97;;;2.33;;
38162;SDS011;23977;53.078;18.248;2023-07-30T11:31:42;4.80;;;2.88;;
38162;SDS011;23977;53.078;18.248;2023-07-30T11:34:09;4.40;;;2.55;;
38162;SDS011;23977;53.078;18.248;2023-07-30T11:36:35;3.92;;;2.67;;
38162;SDS011;23977;53.078;18.248;2023-07-30T11:39:01;4.60;;;2.90;;
38162;SDS011;23977;53.078;18.248;2023-07-30T11:41:27;4.18;;;2.88;;
38162;SDS011;23977;53.078;18.248;2023-07-30T11:43:53;3.88;;;2.30;;
38162;SDS011;23977;53.078;18.248;2023-07-30T11:46:20;2.83;;;2.38;;
38162;SDS011;23977;53.078;18.248;2023-07-30T11:48:48;5.18;;;2.63;;
38162;SDS011;23977;53.078;18.248;2023-07-30T11:51:26;4.00;;;3.00;;
38162;SDS011;23977;53.078;18.248;2023-07-30T11:53:58;3.38;;;2.60;;
38162;SDS011;23977;53.078;18.248;2023-07-30T11:56:26;4.25;;;2.72;;
38162;SDS011;23977;53.078;18.248;2023-07-30T11:59:00;3.80;;;2.95;;
38162;SDS011;23977;53.078;18.248;2023-07-30T12:01:31;3.50;;;2.60;;
38162;SDS011;23977;53.078;18.248;2023-07-30T12:04:02;3.58;;;2.97;;
38162;SDS011;23977;53.078;18.248;2023-07-30T12:06:40;4.85;;;2.80;;
38162;SDS011;23977;53.078;18.248;2023-07-30T12:09:10;4.53;;;2.55;;
38162;SDS011;23977;53.078;18.248;2023-07-30T12:11:44;3.22;;;2.30;;
38162;SDS011;23977;53.078;18.248;2023-07-30T12:14:14;3.50;;;2.50;;
38162;SDS011;23977;53.078;18.248;2023-07-30T12:16:40;3.80;;;2.30;;
38162;SDS011;23977;53.078;18.248;2023-07-30T12:19:06;3.20;;;2.40;;
38162;SDS011;23977;53.078;18.248;2023-07-30T12:21:32;3.72;;;2.50;;
38162;SDS011;23977;53.078;18.248;2023-07-30T12:23:58;2.65;;;2.00;;
38162;SDS011;23977;53.078;18.248;2023-07-30T12:26:23;2.65;;;1.70;;
38162;SDS011;23977;53.078;18.248;2023-07-30T12:28:49;3.22;;;2.03;;
38162;SDS011;23977;53.078;18.248;2023-07-30T12:31:15;5.63;;;1.80;;
38162;SDS011;23977;53.078;18.248;2023-07-30T12:33:41;2.58;;;1.80;;
38162;SDS011;23977;53.078;18.248;2023-07-30T12:36:07;2.60;;;1.65;;
38162;SDS011;23977;53.078;18.248;2023-07-30T12:38:32;3.72;;;1.95;;
38162;SDS011;23977;53.078;18.248;2023-07-30T12:40:59;2.75;;;1.80;;
38162;SDS011;23977;53.078;18.248;2023-07-30T12:43:25;4.35;;;1.77;;
38162;SDS011;23977;53.078;18.248;2023-07-30T12:45:51;2.22;;;1.50;;
38162;SDS011;23977;53.078;18.248;2023-07-30T12:48:17;2.67;;;1.50;;
38162;SDS011;23977;53.078;18.248;2023-07-30T12:50:43;3.03;;;1.67;;
38162;SDS011;23977;53.078;18.248;2023-07-30T12:53:08;2.08;;;1.50;;
38162;SDS011;23977;53.078;18.248;2023-07-30T12:55:34;3.08;;;1.80;;
38162;SDS011;23977;53.078;18.248;2023-07-30T12:58:00;3.13;;;1.80;;
38162;SDS011;23977;53.078;18.248;2023-07-30T13:00:25;2.45;;;1.60;;
38162;SDS011;23977;53.078;18.248;2023-07-30T13:02:51;2.85;;;1.63;;
38162;SDS011;23977;53.078;18.248;2023-07-30T13:05:21;3.00;;;1.80;;
38162;SDS011;23977;53.078;18.248;2023-07-30T13:07:46;3.45;;;1.90;;
38162;SDS011;23977;53.078;18.248;2023-07-30T13:10:12;2.75;;;1.80;;
38162;SDS011;23977;53.078;18.248;2023-07-30T13:12:38;3.33;;;1.80;;
38162;SDS011;23977;53.078;18.248;2023-07-30T13:15:04;3.90;;;2.03;;
38162;SDS011;23977;53.078;18.248;2023-07-30T13:17:30;3.45;;;1.98;;
38162;SDS011;23977;53.078;18.248;2023-07-30T13:19:57;3.70;;;1.98;;
38162;SDS011;23977;53.078;18.248;2023-07-30T13:22:22;3.25;;;2.00;;
38162;SDS011;23977;53.078;18.248;2023-07-30T13:24:48;3.63;;;1.90;;
38162;SDS011;23977;53.078;18.248;2023-07-30T13:27:14;4.40;;;1.80;;
38162;SDS011;23977;53.078;18.248;2023-07-30T13:29:40;4.15;;;2.30;;
38162;SDS011;23977;53.078;18.248;2023-07-30T13:32:05;4.35;;;1.70;;
38162;SDS011;23977;53.078;18.248;2023-07-30T13:34:31;4.65;;;1.80;;
38162;SDS011;23977;53.078;18.248;2023-07-30T13:36:57;3.00;;;1.80;;
38162;SDS011;23977;53.078;18.248;2023-07-30T13:39:23;4.05;;;1.80;;
38162;SDS011;23977;53.078;18.248;2023-07-30T13:41:49;3.17;;;1.90;;
38162;SDS011;23977;53.078;18.248;2023-07-30T13:44:14;3.38;;;1.80;;
38162;SDS011;23977;53.078;18.248;2023-07-30T13:46:40;2.67;;;1.55;;
38162;SDS011;23977;53.078;18.248;2023-07-30T13:49:06;4.32;;;1.70;;
38162;SDS011;23977;53.078;18.248;2023-07-30T13:51:32;3.30;;;1.60;;
38162;SDS011;23977;53.078;18.248;2023-07-30T13:53:58;2.25;;;1.50;;
38162;SDS011;23977;53.078;18.248;2023-07-30T13:56:25;3.10;;;1.70;;
38162;SDS011;23977;53.078;18.248;2023-07-30T13:58:52;3.53;;;1.80;;
38162;SDS011;23977;53.078;18.248;2023-07-30T14:01:17;2.65;;;1.70;;
38162;SDS011;23977;53.078;18.248;2023-07-30T14:03:43;3.20;;;1.67;;
38162;SDS011;23977;53.078;18.248;2023-07-30T14:06:09;2.75;;;1.60;;
38162;SDS011;23977;53.078;18.248;2023-07-30T14:08:34;2.80;;;1.52;;
38162;SDS011;23977;53.078;18.248;2023-07-30T14:11:00;2.50;;;1.40;;
38162;SDS011;23977;53.078;18.248;2023-07-30T14:13:26;4.05;;;1.70;;
38162;SDS011;23977;53.078;18.248;2023-07-30T14:15:51;2.60;;;1.40;;
38162;SDS011;23977;53.078;18.248;2023-07-30T14:18:17;2.28;;;1.40;;
38162;SDS011;23977;53.078;18.248;2023-07-30T14:20:43;2.88;;;1.30;;
38162;SDS011;23977;53.078;18.248;2023-07-30T14:23:08;3.05;;;1.60;;
38162;SDS011;23977;53.078;18.248;2023-07-30T14:25:35;2.25;;;1.33;;